createdAt,value
2022-09-23T04:33:55.638Z,32.33
2022-09-23T04:36:41.807Z,32.40
2022-09-23T04:39:09.012Z,32.35
2022-09-23T04:41:36.148Z,32.35
2022-09-23T04:44:04.255Z,32.35
2022-09-23T04:46:31.616Z,32.45
2022-09-23T04:48:58.914Z,32.52
2022-09-23T04:51:29.013Z,32.64
2022-09-23T04:53:56.681Z,32.37
2022-09-23T04:56:27.063Z,32.49
2022-09-23T04:58:56.778Z,32.43
2022-09-23T05:01:30.040Z,32.44
2022-09-23T05:04:15.888Z,32.45
2022-09-23T05:06:45.426Z,32.36
2022-09-23T05:09:20.159Z,32.53
2022-09-23T05:11:48.889Z,32.53
2022-09-23T05:19:45.259Z,32.31
2022-09-23T05:22:33.637Z,32.51
2022-09-23T05:25:04.786Z,32.52
2022-09-23T05:27:37.905Z,32.33
2022-09-23T05:30:08.960Z,32.35
2022-09-23T05:32:36.265Z,32.54
2022-09-23T05:35:07.911Z,32.41
2022-09-23T13:54:50.347Z,44.21
2022-09-23T13:57:29.883Z,44.22
2022-09-23T14:00:15.771Z,44.36
2022-09-23T14:02:47.233Z,44.07
2022-09-23T14:05:27.138Z,44.04
2022-09-23T14:07:57.503Z,44.05
2022-09-23T14:10:27.613Z,44.25
2022-09-23T14:13:03.200Z,44.18
2022-09-23T14:15:31.440Z,44.20
2022-09-23T14:18:06.537Z,44.18
2022-09-23T14:20:45.422Z,44.13
2022-09-23T14:23:15.003Z,43.92
2022-09-23T14:25:52.775Z,43.70
2022-09-23T14:28:29.029Z,43.69
2022-09-23T14:30:58.756Z,43.42
2022-09-23T14:33:31.183Z,43.60
2022-09-23T14:36:08.841Z,43.38
2022-09-23T14:38:51.846Z,43.22
2022-09-23T14:41:26.727Z,42.90
2022-09-23T14:43:57.433Z,43.13
2022-09-23T14:46:33.658Z,43.03
2022-09-23T14:49:15.820Z,43.06
2022-09-23T14:51:53.595Z,42.95
2022-09-23T14:54:35.020Z,42.82
2022-09-23T14:57:32.187Z,42.64
2022-09-23T15:00:02.845Z,42.62
2022-09-23T15:02:36.235Z,42.55
2022-09-23T15:05:24.068Z,42.71
2022-09-23T15:07:53.516Z,42.67
2022-09-23T15:10:28.165Z,42.36
2022-09-23T15:13:06.020Z,42.24
2022-09-23T15:15:33.877Z,42.64
2022-09-23T15:18:06.996Z,43.00
2022-09-23T15:20:35.745Z,42.76
2022-09-23T15:23:03.239Z,42.51
2022-09-23T15:25:41.148Z,42.37
2022-09-23T15:28:11.233Z,42.27
2022-09-23T15:30:39.384Z,42.07
2022-09-23T15:33:07.603Z,41.84
2022-09-23T15:35:36.978Z,41.75
2022-09-23T15:38:04.634Z,41.58
2022-09-23T15:40:34.509Z,41.57
2022-09-23T15:43:21.043Z,41.36
2022-09-23T15:45:50.684Z,41.40
2022-09-23T15:48:23.663Z,41.29
2022-09-23T15:50:52.427Z,41.23
2022-09-23T16:04:16.411Z,40.54
2022-09-23T16:06:45.683Z,40.49
2022-09-23T16:09:15.520Z,40.55
2022-09-23T16:11:50.972Z,40.35
2022-09-23T16:14:38.127Z,40.25
2022-09-23T16:17:06.157Z,40.18
2022-09-23T16:19:34.582Z,40.09
2022-09-23T16:22:02.326Z,39.95
2022-09-23T16:24:29.956Z,39.96
2022-09-23T16:27:00.251Z,39.86
2022-09-23T16:29:27.946Z,39.80
2022-09-23T16:32:04.548Z,39.85
2022-09-23T16:34:35.059Z,39.65
2022-09-23T16:37:04.964Z,39.58
2022-09-23T16:39:32.273Z,39.56
2022-09-23T16:42:01.589Z,39.45
2022-09-23T16:44:33.386Z,39.39
2022-09-23T16:47:00.682Z,39.38
2022-09-23T16:49:28.258Z,39.25
2022-09-23T16:51:55.820Z,39.39
2022-09-23T16:54:24.756Z,39.17
2022-09-23T16:56:52.922Z,39.17
2022-09-23T16:59:20.428Z,39.15
2022-09-23T17:02:06.979Z,39.22
2022-09-23T17:04:34.604Z,38.95
2022-09-23T17:07:02.232Z,38.88
2022-09-23T17:09:34.592Z,38.89
2022-09-23T17:12:30.048Z,38.91
2022-09-23T17:14:57.842Z,38.80
2022-09-23T17:17:28.733Z,38.74
2022-09-23T17:19:56.694Z,38.87
2022-09-23T17:22:24.405Z,38.72
2022-09-23T17:24:51.831Z,38.77
2022-09-23T17:27:19.569Z,38.74
2022-09-23T17:29:47.212Z,38.72
2022-09-23T17:32:15.167Z,38.66
2022-09-23T17:34:44.513Z,38.63
2022-09-23T17:37:13.141Z,38.62
2022-09-23T17:39:42.493Z,38.69
2022-09-23T17:42:15.869Z,38.57
2022-09-23T17:44:44.349Z,38.53
2022-09-23T17:47:11.873Z,38.57
2022-09-23T17:49:39.412Z,38.52
2022-09-23T17:52:08.233Z,38.36
2022-09-23T17:54:37.557Z,38.41
2022-09-23T17:57:04.724Z,38.34
2022-09-23T17:59:36.669Z,38.37
2022-09-23T18:02:07.022Z,38.33
2022-09-23T18:05:56.784Z,38.27
2022-09-23T18:08:06.048Z,38.33
2022-09-23T18:10:47.216Z,38.20
2022-09-23T18:13:18.027Z,38.18
2022-09-23T18:15:55.576Z,38.11
2022-09-23T18:18:23.523Z,38.22
2022-09-23T18:21:03.471Z,38.30
2022-09-23T18:23:40.097Z,38.29
2022-09-23T18:26:15.128Z,38.11
2022-09-23T18:28:44.284Z,38.16
2022-09-23T18:31:12.319Z,38.04
2022-09-23T18:33:40.030Z,38.05
2022-09-23T18:36:08.323Z,38.09
2022-09-23T18:38:44.378Z,37.98
2022-09-23T18:41:12.121Z,37.98
2022-09-23T18:43:42.366Z,38.17
2022-09-23T18:46:18.559Z,38.08
2022-09-23T18:49:04.447Z,38.06
2022-09-23T18:51:34.953Z,38.05
2022-09-23T18:54:04.288Z,38.06
2022-09-23T18:56:34.678Z,37.90
2022-09-23T18:59:01.791Z,37.89
2022-09-23T19:01:29.219Z,38.01
2022-09-23T19:03:57.602Z,37.87
2022-09-23T19:06:26.031Z,37.79
2022-09-23T19:08:55.107Z,38.01
2022-09-23T19:11:24.138Z,37.83
2022-09-23T19:14:03.678Z,37.85
2022-09-23T19:16:36.376Z,37.76
2022-09-23T19:19:11.787Z,37.90
2022-09-23T19:21:38.939Z,37.75
2022-09-23T19:27:53.320Z,37.65
2022-09-23T19:30:22.248Z,37.84
2022-09-23T19:32:49.896Z,37.75
2022-09-23T19:45:35.809Z,37.50
2022-09-23T19:48:10.087Z,37.71
2022-09-23T19:50:41.825Z,37.46
2022-09-23T19:53:09.015Z,37.50
2022-09-23T19:55:45.727Z,37.46
2022-09-23T19:58:14.573Z,37.53
2022-09-23T20:00:46.302Z,37.51
2022-09-23T20:03:13.572Z,37.56
2022-09-23T20:05:43.109Z,37.44
2022-09-23T20:08:10.519Z,37.52
2022-09-23T20:14:54.214Z,37.36
2022-09-23T20:17:21.270Z,37.38
